Halifax, Canada
Current Conditions -  °F | °C
As of 11:41 AM on Saturday 25 Oct 2014 (Local Time) from CYHZ Reporting Station
Haze Haze  
Wind Chill: 42°   Ceiling: 400
Heat Index: 48°   Visibility: 3mi
Dew Point: 48°   Wind: 15mph
Humidity: 100%   Direction: 310°NW
Pressure: 29.46"   Gusts: 21mph
Location:  44.65°N, 63.57°W
Report Text: CYHZ 251441Z 31013G18KT 3SM BR OVC004 09/09 A2946 RMK SF8 SLP979
Loading
Personal Weather Stations






























Interactive Weather Map
Tropical Storm Tracking
New forecast layout! Learn more

10-Day Weather Forecast

Advertisements
Track Severe Weather on mobile